KVCT/VCT METAR and TAF weather

Enter ICAO airport designator
Station Type Date Time Source
KVCT METAR 2020/07/10 20:51 UTC NOAA

KVCT 102051Z 16011KT 10SM FEW046 36/24 A3000 RMK AO2 SLP157 T03610239 55003


Station Type Date Time Source
KVCT Decoded METAR 2020/07/10 20:51 UTC NOAA

VICTORIA REGIONAL AIRPORT, TX, United States (KVCT) 28-52N 96-56W 31M
Jul 10, 2020 - 04:51 PM EDT / 2020.07.10 2051 UTC
Wind: from the SSE (160 degrees) at 13 MPH (11 KT):0
Visibility: 10 mile(s):0
Sky conditions: mostly clear
Temperature: 97.0 F (36.1 C)
Heat index: 109.4 F (43.0 C):1
Dew Point: 75.0 F (23.9 C)
Relative Humidity: 49%
Pressure (altimeter): 30 in. Hg (1015 hPa)
Pressure tendency: 0.01 inches (0.3 hPa) lower than three hours ago
ob: KVCT 102051Z 16011KT 10SM FEW046 36/24 A3000 RMK AO2 SLP157 T03610239 55003
cycle: 21

Station Type Date Time Source
KVCT TAF 2020/07/10 18:27 UTC NOAA

TAF KVCT 101725Z 1018/1118 17012G20KT P6SM BKN040
FM110300 14008KT P6SM SCT020
FM110800 18003KT 5SM BR BKN012
TEMPO 1110/1113 2SM BR
FM111400 20005KT P6SM BKN020
FM111700 19012KT P6SM SCT035

Example: see airport list